sensor_id;sensor_type;location;lat;lon;timestamp;temperature;humidity
29093;DHT22;16167;48.768;14.984;2022-09-09T00:00:12;11.00;99.90
29093;DHT22;16167;48.768;14.984;2022-09-09T00:02:44;11.00;99.90
29093;DHT22;16167;48.768;14.984;2022-09-09T00:05:19;10.90;99.90
29093;DHT22;16167;48.768;14.984;2022-09-09T00:07:55;10.90;99.90
29093;DHT22;16167;48.768;14.984;2022-09-09T00:10:29;10.90;99.90
29093;DHT22;16167;48.768;14.984;2022-09-09T00:13:05;10.90;99.90
29093;DHT22;16167;48.768;14.984;2022-09-09T00:15:40;10.80;99.90
29093;DHT22;16167;48.768;14.984;2022-09-09T00:18:17;10.90;99.90
29093;DHT22;16167;48.768;14.984;2022-09-09T00:20:54;10.80;99.90
29093;DHT22;16167;48.768;14.984;2022-09-09T00:23:28;10.80;99.90
29093;DHT22;16167;48.768;14.984;2022-09-09T00:26:04;10.80;99.90
29093;DHT22;16167;48.768;14.984;2022-09-09T00:28:38;10.80;99.90
29093;DHT22;16167;48.768;14.984;2022-09-09T00:31:12;10.80;99.90
29093;DHT22;16167;48.768;14.984;2022-09-09T00:33:42;10.70;99.90
29093;DHT22;16167;48.768;14.984;2022-09-09T00:36:13;10.70;99.90
29093;DHT22;16167;48.768;14.984;2022-09-09T00:38:47;10.70;99.90
29093;DHT22;16167;48.768;14.984;2022-09-09T00:41:20;10.70;99.90
29093;DHT22;16167;48.768;14.984;2022-09-09T00:43:56;10.70;99.90
29093;DHT22;16167;48.768;14.984;2022-09-09T00:49:37;10.60;99.90
29093;DHT22;16167;48.768;14.984;2022-09-09T00:52:13;10.60;99.90
29093;DHT22;16167;48.768;14.984;2022-09-09T00:54:53;10.60;99.90
29093;DHT22;16167;48.768;14.984;2022-09-09T00:57:26;10.60;99.90
29093;DHT22;16167;48.768;14.984;2022-09-09T01:00:00;10.50;99.90
29093;DHT22;16167;48.768;14.984;2022-09-09T01:02:37;10.60;99.90
29093;DHT22;16167;48.768;14.984;2022-09-09T01:05:13;10.50;99.90
29093;DHT22;16167;48.768;14.984;2022-09-09T01:07:46;10.50;99.90
29093;DHT22;16167;48.768;14.984;2022-09-09T01:10:23;10.50;99.90
29093;DHT22;16167;48.768;14.984;2022-09-09T01:12:54;10.50;99.90
29093;DHT22;16167;48.768;14.984;2022-09-09T01:15:26;10.50;99.90
29093;DHT22;16167;48.768;14.984;2022-09-09T01:18:00;10.50;99.90
29093;DHT22;16167;48.768;14.984;2022-09-09T01:20:33;10.50;99.90
29093;DHT22;16167;48.768;14.984;2022-09-09T01:23:38;10.50;99.90
29093;DHT22;16167;48.768;14.984;2022-09-09T01:26:18;10.50;99.90
29093;DHT22;16167;48.768;14.984;2022-09-09T01:28:48;10.50;99.90
29093;DHT22;16167;48.768;14.984;2022-09-09T01:31:17;10.50;99.90
29093;DHT22;16167;48.768;14.984;2022-09-09T01:33:46;10.50;99.90
29093;DHT22;16167;48.768;14.984;2022-09-09T01:36:20;10.40;99.90
29093;DHT22;16167;48.768;14.984;2022-09-09T01:38:49;10.50;99.90
29093;DHT22;16167;48.768;14.984;2022-09-09T01:41:18;10.50;99.90
29093;DHT22;16167;48.768;14.984;2022-09-09T01:43:47;10.40;99.90
29093;DHT22;16167;48.768;14.984;2022-09-09T01:46:16;10.40;99.90
29093;DHT22;16167;48.768;14.984;2022-09-09T01:48:45;10.40;99.90
29093;DHT22;16167;48.768;14.984;2022-09-09T01:51:14;10.40;99.90
29093;DHT22;16167;48.768;14.984;2022-09-09T01:53:43;10.40;99.90
29093;DHT22;16167;48.768;14.984;2022-09-09T01:56:28;10.40;99.90
29093;DHT22;16167;48.768;14.984;2022-09-09T01:59:19;10.40;99.90
29093;DHT22;16167;48.768;14.984;2022-09-09T02:01:58;10.40;99.90
29093;DHT22;16167;48.768;14.984;2022-09-09T02:04:36;10.40;99.90
29093;DHT22;16167;48.768;14.984;2022-09-09T02:07:12;10.40;99.90
29093;DHT22;16167;48.768;14.984;2022-09-09T02:09:43;10.40;99.90
29093;DHT22;16167;48.768;14.984;2022-09-09T02:12:17;10.40;99.90
29093;DHT22;16167;48.768;14.984;2022-09-09T02:14:59;10.40;99.90
29093;DHT22;16167;48.768;14.984;2022-09-09T02:17:30;10.30;99.90
29093;DHT22;16167;48.768;14.984;2022-09-09T02:20:03;10.40;99.90
29093;DHT22;16167;48.768;14.984;2022-09-09T02:22:33;10.30;99.90
29093;DHT22;16167;48.768;14.984;2022-09-09T02:25:03;10.30;99.90
29093;DHT22;16167;48.768;14.984;2022-09-09T02:27:33;10.30;99.90
29093;DHT22;16167;48.768;14.984;2022-09-09T02:30:03;10.30;99.90
29093;DHT22;16167;48.768;14.984;2022-09-09T02:32:34;10.30;99.90
29093;DHT22;16167;48.768;14.984;2022-09-09T02:35:06;10.30;99.90
29093;DHT22;16167;48.768;14.984;2022-09-09T02:37:37;10.30;99.90
29093;DHT22;16167;48.768;14.984;2022-09-09T02:40:08;10.30;99.90
29093;DHT22;16167;48.768;14.984;2022-09-09T02:42:40;10.30;99.90
29093;DHT22;16167;48.768;14.984;2022-09-09T02:45:09;10.20;99.90
29093;DHT22;16167;48.768;14.984;2022-09-09T02:47:41;10.30;99.90
29093;DHT22;16167;48.768;14.984;2022-09-09T02:50:13;10.20;99.90
29093;DHT22;16167;48.768;14.984;2022-09-09T02:52:51;10.20;99.90
29093;DHT22;16167;48.768;14.984;2022-09-09T02:55:24;10.20;99.90
29093;DHT22;16167;48.768;14.984;2022-09-09T02:57:55;10.20;99.90
29093;DHT22;16167;48.768;14.984;2022-09-09T03:00:24;10.20;99.90
29093;DHT22;16167;48.768;14.984;2022-09-09T03:02:53;10.20;99.90
29093;DHT22;16167;48.768;14.984;2022-09-09T03:05:21;10.20;99.90
29093;DHT22;16167;48.768;14.984;2022-09-09T03:07:50;10.20;99.90
29093;DHT22;16167;48.768;14.984;2022-09-09T03:10:18;10.20;99.90
29093;DHT22;16167;48.768;14.984;2022-09-09T03:12:46;10.20;99.90
29093;DHT22;16167;48.768;14.984;2022-09-09T03:15:16;10.20;99.90
29093;DHT22;16167;48.768;14.984;2022-09-09T03:17:44;10.10;99.90
29093;DHT22;16167;48.768;14.984;2022-09-09T03:20:13;10.20;99.90
29093;DHT22;16167;48.768;14.984;2022-09-09T03:22:41;10.10;99.90
29093;DHT22;16167;48.768;14.984;2022-09-09T03:25:11;10.10;99.90
29093;DHT22;16167;48.768;14.984;2022-09-09T03:27:39;10.10;99.90
29093;DHT22;16167;48.768;14.984;2022-09-09T03:30:07;10.10;99.90
29093;DHT22;16167;48.768;14.984;2022-09-09T03:32:37;10.10;99.90
29093;DHT22;16167;48.768;14.984;2022-09-09T03:35:06;10.10;99.90
29093;DHT22;16167;48.768;14.984;2022-09-09T03:37:34;10.00;99.90
29093;DHT22;16167;48.768;14.984;2022-09-09T03:40:03;10.00;99.90
29093;DHT22;16167;48.768;14.984;2022-09-09T03:42:31;10.00;99.90
29093;DHT22;16167;48.768;14.984;2022-09-09T03:44:59;10.00;99.90
29093;DHT22;16167;48.768;14.984;2022-09-09T03:47:27;10.00;99.90
29093;DHT22;16167;48.768;14.984;2022-09-09T03:49:56;10.00;99.90
29093;DHT22;16167;48.768;14.984;2022-09-09T03:52:24;9.90;99.90
29093;DHT22;16167;48.768;14.984;2022-09-09T03:54:53;10.00;99.90
29093;DHT22;16167;48.768;14.984;2022-09-09T03:57:23;9.90;99.90
29093;DHT22;16167;48.768;14.984;2022-09-09T03:59:51;9.90;99.90
29093;DHT22;16167;48.768;14.984;2022-09-09T04:02:19;9.90;99.90
29093;DHT22;16167;48.768;14.984;2022-09-09T04:04:48;9.90;99.90
29093;DHT22;16167;48.768;14.984;2022-09-09T04:07:17;9.90;99.90
29093;DHT22;16167;48.768;14.984;2022-09-09T04:09:45;9.90;99.90
29093;DHT22;16167;48.768;14.984;2022-09-09T04:12:13;9.80;99.90
29093;DHT22;16167;48.768;14.984;2022-09-09T04:14:41;9.80;99.90
29093;DHT22;16167;48.768;14.984;2022-09-09T04:17:09;9.80;99.90
29093;DHT22;16167;48.768;14.984;2022-09-09T04:19:37;9.80;99.90
29093;DHT22;16167;48.768;14.984;2022-09-09T04:22:05;9.80;99.90
29093;DHT22;16167;48.768;14.984;2022-09-09T04:24:35;9.80;99.90
29093;DHT22;16167;48.768;14.984;2022-09-09T04:27:03;9.80;99.90
29093;DHT22;16167;48.768;14.984;2022-09-09T04:29:31;9.80;99.90
29093;DHT22;16167;48.768;14.984;2022-09-09T04:32:00;9.80;99.90
29093;DHT22;16167;48.768;14.984;2022-09-09T04:34:28;9.80;99.90
29093;DHT22;16167;48.768;14.984;2022-09-09T04:36:57;9.80;99.90
29093;DHT22;16167;48.768;14.984;2022-09-09T04:39:25;9.80;99.90
29093;DHT22;16167;48.768;14.984;2022-09-09T04:41:54;9.80;99.90
29093;DHT22;16167;48.768;14.984;2022-09-09T04:44:22;9.90;99.90
29093;DHT22;16167;48.768;14.984;2022-09-09T04:46:51;9.90;99.90
29093;DHT22;16167;48.768;14.984;2022-09-09T04:49:19;9.90;99.90
29093;DHT22;16167;48.768;14.984;2022-09-09T04:51:49;10.00;99.90
29093;DHT22;16167;48.768;14.984;2022-09-09T04:54:17;10.00;99.90
29093;DHT22;16167;48.768;14.984;2022-09-09T04:56:45;10.10;99.90
29093;DHT22;16167;48.768;14.984;2022-09-09T04:59:14;10.10;99.90
29093;DHT22;16167;48.768;14.984;2022-09-09T05:01:42;10.10;99.90
29093;DHT22;16167;48.768;14.984;2022-09-09T05:04:11;10.20;99.90
29093;DHT22;16167;48.768;14.984;2022-09-09T05:06:39;10.20;99.90
29093;DHT22;16167;48.768;14.984;2022-09-09T05:09:06;10.30;99.90
29093;DHT22;16167;48.768;14.984;2022-09-09T05:11:35;10.30;99.90
29093;DHT22;16167;48.768;14.984;2022-09-09T05:14:04;10.40;99.90
29093;DHT22;16167;48.768;14.984;2022-09-09T05:16:34;10.50;99.90
29093;DHT22;16167;48.768;14.984;2022-09-09T05:19:02;10.60;99.90
29093;DHT22;16167;48.768;14.984;2022-09-09T05:21:30;10.60;99.90
29093;DHT22;16167;48.768;14.984;2022-09-09T05:23:58;10.70;99.90
29093;DHT22;16167;48.768;14.984;2022-09-09T05:26:29;10.70;99.90
29093;DHT22;16167;48.768;14.984;2022-09-09T05:28:58;10.80;99.90
29093;DHT22;16167;48.768;14.984;2022-09-09T05:31:29;10.90;99.90
29093;DHT22;16167;48.768;14.984;2022-09-09T05:33:58;11.00;99.90
29093;DHT22;16167;48.768;14.984;2022-09-09T05:36:27;11.10;99.90
29093;DHT22;16167;48.768;14.984;2022-09-09T05:38:55;11.10;99.90
29093;DHT22;16167;48.768;14.984;2022-09-09T05:41:23;11.20;99.90
29093;DHT22;16167;48.768;14.984;2022-09-09T05:43:51;11.30;99.90
29093;DHT22;16167;48.768;14.984;2022-09-09T05:46:20;11.40;99.90
29093;DHT22;16167;48.768;14.984;2022-09-09T05:48:49;11.40;99.90
29093;DHT22;16167;48.768;14.984;2022-09-09T05:51:21;11.50;99.90
29093;DHT22;16167;48.768;14.984;2022-09-09T05:53:49;11.60;99.90
29093;DHT22;16167;48.768;14.984;2022-09-09T05:56:19;11.70;99.90
29093;DHT22;16167;48.768;14.984;2022-09-09T05:58:49;11.70;99.90
29093;DHT22;16167;48.768;14.984;2022-09-09T06:01:19;11.80;99.90
29093;DHT22;16167;48.768;14.984;2022-09-09T06:03:49;12.00;99.90
29093;DHT22;16167;48.768;14.984;2022-09-09T06:06:20;12.00;99.90
29093;DHT22;16167;48.768;14.984;2022-09-09T06:08:50;12.00;99.90
29093;DHT22;16167;48.768;14.984;2022-09-09T06:11:20;12.00;99.90
29093;DHT22;16167;48.768;14.984;2022-09-09T06:13:49;12.10;99.90
29093;DHT22;16167;48.768;14.984;2022-09-09T06:16:21;12.10;99.90
29093;DHT22;16167;48.768;14.984;2022-09-09T06:18:51;12.10;99.90
29093;DHT22;16167;48.768;14.984;2022-09-09T06:21:23;12.20;99.90
29093;DHT22;16167;48.768;14.984;2022-09-09T06:23:51;12.20;99.90
29093;DHT22;16167;48.768;14.984;2022-09-09T06:26:26;12.40;99.90
29093;DHT22;16167;48.768;14.984;2022-09-09T06:28:55;12.50;99.90
29093;DHT22;16167;48.768;14.984;2022-09-09T06:31:26;12.60;99.90
29093;DHT22;16167;48.768;14.984;2022-09-09T06:33:58;12.90;99.90
29093;DHT22;16167;48.768;14.984;2022-09-09T06:36:29;13.10;99.90
29093;DHT22;16167;48.768;14.984;2022-09-09T06:38:58;13.30;99.90
29093;DHT22;16167;48.768;14.984;2022-09-09T06:41:28;13.40;99.90
29093;DHT22;16167;48.768;14.984;2022-09-09T06:43:56;13.80;99.90
29093;DHT22;16167;48.768;14.984;2022-09-09T06:46:26;14.00;99.90
29093;DHT22;16167;48.768;14.984;2022-09-09T06:48:55;14.30;99.90
29093;DHT22;16167;48.768;14.984;2022-09-09T06:51:28;14.60;99.90
29093;DHT22;16167;48.768;14.984;2022-09-09T06:53:57;14.90;98.80
29093;DHT22;16167;48.768;14.984;2022-09-09T06:56:26;15.20;98.10
29093;DHT22;16167;48.768;14.984;2022-09-09T06:58:56;15.50;88.40
29093;DHT22;16167;48.768;14.984;2022-09-09T07:01:26;15.70;89.00
29093;DHT22;16167;48.768;14.984;2022-09-09T07:03:56;15.90;86.40
29093;DHT22;16167;48.768;14.984;2022-09-09T07:06:28;16.10;88.10
29093;DHT22;16167;48.768;14.984;2022-09-09T07:08:58;16.30;76.60
29093;DHT22;16167;48.768;14.984;2022-09-09T07:11:29;16.50;73.50
29093;DHT22;16167;48.768;14.984;2022-09-09T07:13:58;16.60;65.40
29093;DHT22;16167;48.768;14.984;2022-09-09T07:16:27;16.90;75.40
29093;DHT22;16167;48.768;14.984;2022-09-09T07:18:56;17.10;77.50
29093;DHT22;16167;48.768;14.984;2022-09-09T07:21:25;17.20;62.60
29093;DHT22;16167;48.768;14.984;2022-09-09T07:23:55;17.30;59.30
29093;DHT22;16167;48.768;14.984;2022-09-09T07:26:25;17.40;55.30
29093;DHT22;16167;48.768;14.984;2022-09-09T07:28:54;17.70;56.70
29093;DHT22;16167;48.768;14.984;2022-09-09T07:31:25;17.90;54.30
29093;DHT22;16167;48.768;14.984;2022-09-09T07:33:54;17.90;41.90
29093;DHT22;16167;48.768;14.984;2022-09-09T07:36:24;17.80;41.90
29093;DHT22;16167;48.768;14.984;2022-09-09T07:39:02;17.90;46.80
29093;DHT22;16167;48.768;14.984;2022-09-09T07:41:32;18.20;50.20
29093;DHT22;16167;48.768;14.984;2022-09-09T07:44:04;18.40;39.70
29093;DHT22;16167;48.768;14.984;2022-09-09T07:46:33;18.50;30.70
29093;DHT22;16167;48.768;14.984;2022-09-09T07:49:02;18.60;32.10
29093;DHT22;16167;48.768;14.984;2022-09-09T07:51:33;18.90;35.20
29093;DHT22;16167;48.768;14.984;2022-09-09T07:54:05;19.30;36.30
29093;DHT22;16167;48.768;14.984;2022-09-09T07:56:33;19.40;27.10
29093;DHT22;16167;48.768;14.984;2022-09-09T07:59:02;19.40;25.80
29093;DHT22;16167;48.768;14.984;2022-09-09T08:01:32;19.40;25.30
29093;DHT22;16167;48.768;14.984;2022-09-09T08:04:04;19.40;23.00
29093;DHT22;16167;48.768;14.984;2022-09-09T08:06:36;19.40;22.30
29093;DHT22;16167;48.768;14.984;2022-09-09T08:09:07;19.40;18.60
29093;DHT22;16167;48.768;14.984;2022-09-09T08:11:35;19.40;24.10
29093;DHT22;16167;48.768;14.984;2022-09-09T08:14:05;19.40;21.40
29093;DHT22;16167;48.768;14.984;2022-09-09T08:16:36;19.40;21.40
29093;DHT22;16167;48.768;14.984;2022-09-09T08:19:04;19.40;17.70
29093;DHT22;16167;48.768;14.984;2022-09-09T08:21:36;19.40;10.30
29093;DHT22;16167;48.768;14.984;2022-09-09T08:24:09;19.40;15.10
29093;DHT22;16167;48.768;14.984;2022-09-09T08:26:39;19.30;15.40
29093;DHT22;16167;48.768;14.984;2022-09-09T08:29:09;19.30;15.20
29093;DHT22;16167;48.768;14.984;2022-09-09T08:31:39;19.20;20.40
29093;DHT22;16167;48.768;14.984;2022-09-09T08:34:07;19.20;22.60
29093;DHT22;16167;48.768;14.984;2022-09-09T08:36:37;19.20;18.50
29093;DHT22;16167;48.768;14.984;2022-09-09T08:39:08;19.20;25.20
29093;DHT22;16167;48.768;14.984;2022-09-09T08:42:03;19.10;20.30
29093;DHT22;16167;48.768;14.984;2022-09-09T08:44:46;19.10;18.30
29093;DHT22;16167;48.768;14.984;2022-09-09T08:47:22;19.10;23.10
29093;DHT22;16167;48.768;14.984;2022-09-09T08:50:08;19.10;25.20
29093;DHT22;16167;48.768;14.984;2022-09-09T08:52:49;19.00;28.40
29093;DHT22;16167;48.768;14.984;2022-09-09T08:55:26;19.10;18.00
29093;DHT22;16167;48.768;14.984;2022-09-09T08:57:57;19.10;27.50
29093;DHT22;16167;48.768;14.984;2022-09-09T09:00:34;19.20;26.70
29093;DHT22;16167;48.768;14.984;2022-09-09T09:03:10;19.20;16.60
29093;DHT22;16167;48.768;14.984;2022-09-09T09:05:47;19.30;20.90
29093;DHT22;16167;48.768;14.984;2022-09-09T09:08:25;19.40;27.40
29093;DHT22;16167;48.768;14.984;2022-09-09T09:10:58;19.40;22.40
29093;DHT22;16167;48.768;14.984;2022-09-09T09:13:32;19.40;29.20
29093;DHT22;16167;48.768;14.984;2022-09-09T09:16:17;19.40;28.00
29093;DHT22;16167;48.768;14.984;2022-09-09T09:18:47;19.50;26.10
29093;DHT22;16167;48.768;14.984;2022-09-09T09:21:17;19.60;29.70
29093;DHT22;16167;48.768;14.984;2022-09-09T09:23:54;19.80;26.30
29093;DHT22;16167;48.768;14.984;2022-09-09T09:26:29;19.80;9.90
29093;DHT22;16167;48.768;14.984;2022-09-09T09:28:59;19.90;36.00
29093;DHT22;16167;48.768;14.984;2022-09-09T09:31:29;20.00;35.60
29093;DHT22;16167;48.768;14.984;2022-09-09T09:33:58;20.10;36.00
29093;DHT22;16167;48.768;14.984;2022-09-09T09:36:35;20.20;14.80
29093;DHT22;16167;48.768;14.984;2022-09-09T09:39:05;20.30;3.70
29093;DHT22;16167;48.768;14.984;2022-09-09T09:41:55;20.50;12.60
29093;DHT22;16167;48.768;14.984;2022-09-09T09:44:26;20.70;7.80
29093;DHT22;16167;48.768;14.984;2022-09-09T09:47:06;20.80;7.20
29093;DHT22;16167;48.768;14.984;2022-09-09T09:49:34;21.00;1.00
29093;DHT22;16167;48.768;14.984;2022-09-09T09:52:05;21.10;1.00
29093;DHT22;16167;48.768;14.984;2022-09-09T09:54:38;21.20;1.00
29093;DHT22;16167;48.768;14.984;2022-09-09T09:57:12;21.50;1.00
29093;DHT22;16167;48.768;14.984;2022-09-09T09:59:42;21.70;1.00
29093;DHT22;16167;48.768;14.984;2022-09-09T10:02:16;21.80;1.00
29093;DHT22;16167;48.768;14.984;2022-09-09T10:04:44;22.10;1.00
29093;DHT22;16167;48.768;14.984;2022-09-09T10:07:17;22.20;1.00
29093;DHT22;16167;48.768;14.984;2022-09-09T10:09:50;22.30;1.00
29093;DHT22;16167;48.768;14.984;2022-09-09T10:12:33;22.40;1.00
29093;DHT22;16167;48.768;14.984;2022-09-09T10:15:19;22.30;1.00
29093;DHT22;16167;48.768;14.984;2022-09-09T10:17:59;22.20;1.00
29093;DHT22;16167;48.768;14.984;2022-09-09T10:20:36;22.20;1.00
29093;DHT22;16167;48.768;14.984;2022-09-09T10:23:18;22.10;1.00
29093;DHT22;16167;48.768;14.984;2022-09-09T10:26:14;22.00;1.00
29093;DHT22;16167;48.768;14.984;2022-09-09T10:31:57;22.00;1.00
29093;DHT22;16167;48.768;14.984;2022-09-09T10:34:47;22.00;1.00
29093;DHT22;16167;48.768;14.984;2022-09-09T10:37:30;22.00;1.00
29093;DHT22;16167;48.768;14.984;2022-09-09T10:40:12;22.00;1.00
29093;DHT22;16167;48.768;14.984;2022-09-09T10:42:42;22.00;1.00
29093;DHT22;16167;48.768;14.984;2022-09-09T10:45:17;22.00;1.00
29093;DHT22;16167;48.768;14.984;2022-09-09T10:47:56;22.00;1.00
29093;DHT22;16167;48.768;14.984;2022-09-09T10:50:42;22.00;1.00
29093;DHT22;16167;48.768;14.984;2022-09-09T10:53:36;22.00;1.00
29093;DHT22;16167;48.768;14.984;2022-09-09T10:56:07;22.00;1.00
29093;DHT22;16167;48.768;14.984;2022-09-09T10:58:41;22.00;1.00
29093;DHT22;16167;48.768;14.984;2022-09-09T11:01:18;22.00;1.00
29093;DHT22;16167;48.768;14.984;2022-09-09T11:03:52;21.90;1.00
29093;DHT22;16167;48.768;14.984;2022-09-09T11:06:28;21.80;1.00
29093;DHT22;16167;48.768;14.984;2022-09-09T11:08:58;21.70;1.00
29093;DHT22;16167;48.768;14.984;2022-09-09T11:11:33;21.70;1.00
29093;DHT22;16167;48.768;14.984;2022-09-09T11:14:09;21.70;1.00
29093;DHT22;16167;48.768;14.984;2022-09-09T11:16:42;21.60;1.00
29093;DHT22;16167;48.768;14.984;2022-09-09T11:19:19;21.60;1.00
29093;DHT22;16167;48.768;14.984;2022-09-09T11:21:50;21.60;1.00
29093;DHT22;16167;48.768;14.984;2022-09-09T11:24:22;21.60;1.00
29093;DHT22;16167;48.768;14.984;2022-09-09T11:26:55;21.50;1.00
29093;DHT22;16167;48.768;14.984;2022-09-09T11:29:53;21.40;1.00
29093;DHT22;16167;48.768;14.984;2022-09-09T11:35:30;21.10;1.00
29093;DHT22;16167;48.768;14.984;2022-09-09T11:38:20;20.90;1.00
29093;DHT22;16167;48.768;14.984;2022-09-09T11:40:56;20.70;1.00
29093;DHT22;16167;48.768;14.984;2022-09-09T11:43:32;20.50;1.00
29093;DHT22;16167;48.768;14.984;2022-09-09T11:46:02;20.20;1.00
29093;DHT22;16167;48.768;14.984;2022-09-09T11:48:34;20.00;1.00
29093;DHT22;16167;48.768;14.984;2022-09-09T11:51:05;19.80;1.00
29093;DHT22;16167;48.768;14.984;2022-09-09T11:53:48;19.60;1.00
29093;DHT22;16167;48.768;14.984;2022-09-09T11:56:26;19.50;1.00
29093;DHT22;16167;48.768;14.984;2022-09-09T11:58:57;19.50;10.80
29093;DHT22;16167;48.768;14.984;2022-09-09T12:01:28;19.50;15.30
29093;DHT22;16167;48.768;14.984;2022-09-09T12:04:33;19.50;10.50
29093;DHT22;16167;48.768;14.984;2022-09-09T12:07:20;19.50;12.60
29093;DHT22;16167;48.768;14.984;2022-09-09T12:09:52;19.40;1.00
29093;DHT22;16167;48.768;14.984;2022-09-09T12:12:28;19.30;1.00
29093;DHT22;16167;48.768;14.984;2022-09-09T12:15:00;19.30;1.00
29093;DHT22;16167;48.768;14.984;2022-09-09T12:17:30;19.20;1.00
29093;DHT22;16167;48.768;14.984;2022-09-09T12:20:04;19.30;1.00
29093;DHT22;16167;48.768;14.984;2022-09-09T12:22:45;19.40;1.00
29093;DHT22;16167;48.768;14.984;2022-09-09T12:25:21;19.60;1.00
29093;DHT22;16167;48.768;14.984;2022-09-09T12:28:01;19.60;1.00
29093;DHT22;16167;48.768;14.984;2022-09-09T12:30:35;19.60;1.00
29093;DHT22;16167;48.768;14.984;2022-09-09T12:33:10;19.50;1.00
29093;DHT22;16167;48.768;14.984;2022-09-09T12:35:42;19.50;1.00
29093;DHT22;16167;48.768;14.984;2022-09-09T12:38:15;19.50;1.00
29093;DHT22;16167;48.768;14.984;2022-09-09T12:40:54;19.50;1.00
29093;DHT22;16167;48.768;14.984;2022-09-09T12:43:26;19.50;1.00
29093;DHT22;16167;48.768;14.984;2022-09-09T12:45:57;19.40;1.00
29093;DHT22;16167;48.768;14.984;2022-09-09T12:48:32;19.40;1.00
29093;DHT22;16167;48.768;14.984;2022-09-09T12:51:04;19.30;2.50
29093;DHT22;16167;48.768;14.984;2022-09-09T12:53:34;19.30;2.10
29093;DHT22;16167;48.768;14.984;2022-09-09T12:56:06;19.20;11.30
29093;DHT22;16167;48.768;14.984;2022-09-09T12:58:36;19.20;11.20
29093;DHT22;16167;48.768;14.984;2022-09-09T13:01:05;19.20;1.00
29093;DHT22;16167;48.768;14.984;2022-09-09T13:03:42;19.20;1.00
29093;DHT22;16167;48.768;14.984;2022-09-09T13:06:20;19.10;2.80
29093;DHT22;16167;48.768;14.984;2022-09-09T13:08:56;19.10;1.00
29093;DHT22;16167;48.768;14.984;2022-09-09T13:11:27;19.00;1.00
29093;DHT22;16167;48.768;14.984;2022-09-09T13:13:57;19.00;11.50
29093;DHT22;16167;48.768;14.984;2022-09-09T13:16:27;18.90;3.20
29093;DHT22;16167;48.768;14.984;2022-09-09T13:18:59;18.90;12.00
29093;DHT22;16167;48.768;14.984;2022-09-09T13:21:34;18.90;3.60
29093;DHT22;16167;48.768;14.984;2022-09-09T13:24:03;18.80;6.70
29093;DHT22;16167;48.768;14.984;2022-09-09T13:26:33;18.80;5.70
29093;DHT22;16167;48.768;14.984;2022-09-09T13:29:14;18.90;1.00
29093;DHT22;16167;48.768;14.984;2022-09-09T13:31:45;18.90;1.00
29093;DHT22;16167;48.768;14.984;2022-09-09T13:34:13;18.90;1.00
29093;DHT22;16167;48.768;14.984;2022-09-09T13:36:48;18.90;1.00
29093;DHT22;16167;48.768;14.984;2022-09-09T13:39:17;19.00;1.00
29093;DHT22;16167;48.768;14.984;2022-09-09T13:41:47;18.90;1.00
29093;DHT22;16167;48.768;14.984;2022-09-09T13:44:21;18.90;1.00
29093;DHT22;16167;48.768;14.984;2022-09-09T13:47:01;18.90;1.00
29093;DHT22;16167;48.768;14.984;2022-09-09T13:49:35;18.80;1.00
29093;DHT22;16167;48.768;14.984;2022-09-09T13:52:09;18.70;1.00
29093;DHT22;16167;48.768;14.984;2022-09-09T13:54:38;18.60;5.90
29093;DHT22;16167;48.768;14.984;2022-09-09T13:57:15;18.50;3.30
29093;DHT22;16167;48.768;14.984;2022-09-09T13:59:44;18.50;14.70
29093;DHT22;16167;48.768;14.984;2022-09-09T14:02:30;18.40;18.40
29093;DHT22;16167;48.768;14.984;2022-09-09T14:04:58;18.40;10.30
29093;DHT22;16167;48.768;14.984;2022-09-09T14:07:28;18.40;15.10
29093;DHT22;16167;48.768;14.984;2022-09-09T14:09:56;18.30;10.70
29093;DHT22;16167;48.768;14.984;2022-09-09T14:12:24;18.30;17.40
29093;DHT22;16167;48.768;14.984;2022-09-09T14:14:52;18.20;7.50
29093;DHT22;16167;48.768;14.984;2022-09-09T14:17:20;18.10;4.40
29093;DHT22;16167;48.768;14.984;2022-09-09T14:19:48;18.10;2.90
29093;DHT22;16167;48.768;14.984;2022-09-09T14:22:17;18.00;5.70
29093;DHT22;16167;48.768;14.984;2022-09-09T14:24:46;17.90;4.20
29093;DHT22;16167;48.768;14.984;2022-09-09T14:27:14;17.80;3.30
29093;DHT22;16167;48.768;14.984;2022-09-09T14:29:42;17.80;3.10
29093;DHT22;16167;48.768;14.984;2022-09-09T14:32:11;17.80;8.40
29093;DHT22;16167;48.768;14.984;2022-09-09T14:34:39;17.70;10.20
29093;DHT22;16167;48.768;14.984;2022-09-09T14:37:07;17.80;9.50
29093;DHT22;16167;48.768;14.984;2022-09-09T14:39:36;17.70;14.30
29093;DHT22;16167;48.768;14.984;2022-09-09T14:42:06;17.70;1.00
29093;DHT22;16167;48.768;14.984;2022-09-09T14:44:35;17.70;8.90
29093;DHT22;16167;48.768;14.984;2022-09-09T14:47:05;17.60;4.10
29093;DHT22;16167;48.768;14.984;2022-09-09T14:49:35;17.60;1.00
29093;DHT22;16167;48.768;14.984;2022-09-09T14:52:06;17.50;5.10
29093;DHT22;16167;48.768;14.984;2022-09-09T14:54:36;17.50;9.20
29093;DHT22;16167;48.768;14.984;2022-09-09T14:57:05;17.40;2.90
29093;DHT22;16167;48.768;14.984;2022-09-09T14:59:34;17.40;15.30
29093;DHT22;16167;48.768;14.984;2022-09-09T15:02:02;17.40;21.70
29093;DHT22;16167;48.768;14.984;2022-09-09T15:04:31;17.30;19.40
29093;DHT22;16167;48.768;14.984;2022-09-09T15:06:59;17.30;25.20
29093;DHT22;16167;48.768;14.984;2022-09-09T15:09:28;17.30;28.70
29093;DHT22;16167;48.768;14.984;2022-09-09T15:11:56;17.30;30.00
29093;DHT22;16167;48.768;14.984;2022-09-09T15:14:25;17.30;28.20
29093;DHT22;16167;48.768;14.984;2022-09-09T15:16:53;17.20;27.90
29093;DHT22;16167;48.768;14.984;2022-09-09T15:19:21;17.20;28.00
29093;DHT22;16167;48.768;14.984;2022-09-09T15:21:49;17.20;19.70
29093;DHT22;16167;48.768;14.984;2022-09-09T15:24:18;17.10;20.80
29093;DHT22;16167;48.768;14.984;2022-09-09T15:26:46;17.10;22.20
29093;DHT22;16167;48.768;14.984;2022-09-09T15:29:14;17.10;24.70
29093;DHT22;16167;48.768;14.984;2022-09-09T15:31:44;17.10;27.40
29093;DHT22;16167;48.768;14.984;2022-09-09T15:34:12;17.10;24.10
29093;DHT22;16167;48.768;14.984;2022-09-09T15:36:42;17.10;18.50
29093;DHT22;16167;48.768;14.984;2022-09-09T15:39:12;17.10;21.30
29093;DHT22;16167;48.768;14.984;2022-09-09T15:41:42;17.00;23.30
29093;DHT22;16167;48.768;14.984;2022-09-09T15:44:11;17.00;25.30
29093;DHT22;16167;48.768;14.984;2022-09-09T15:46:41;16.90;27.60
29093;DHT22;16167;48.768;14.984;2022-09-09T15:49:12;17.00;34.00
29093;DHT22;16167;48.768;14.984;2022-09-09T15:51:41;16.90;29.80
29093;DHT22;16167;48.768;14.984;2022-09-09T15:54:12;16.80;41.80
29093;DHT22;16167;48.768;14.984;2022-09-09T15:56:42;16.80;49.90
29093;DHT22;16167;48.768;14.984;2022-09-09T15:59:10;16.70;39.20